Thornton, Pennsylvania
Current Conditions -  °F | °C
As of 3:54 PM on Sunday 23 Nov 2014 (Local Time) from KPHL Reporting Station
Broken Clouds Broken Clouds  
Wind Chill: 53°   Ceiling: 20000
Heat Index: 53°   Visibility: 10mi
Dew Point: 30°   Wind: 0mph
Humidity: 41%   Direction: NA
Pressure: 30.14"   Gusts: NA
Location:  39.91°N, 75.54°W
Report Text: KPHL 232054Z 00000KT 10SM BKN200 BKN250 12/M01 A3014 RMK AO2 SLP204 T01171011 56016 $
Loading
Personal Weather Stations






























Interactive Weather Map New forecast layout! Learn more

10-Day Weather Forecast

Advertisements
Track Severe Weather on mobile